createdAt,value
2022-12-09T00:00:55.043Z,97432.16
2022-12-09T00:01:56.600Z,97433.53
2022-12-09T00:02:58.942Z,97429.56
2022-12-09T00:04:00.832Z,97424.47
2022-12-09T00:05:02.579Z,97425.22
2022-12-09T00:06:15.011Z,97418.84
2022-12-09T00:07:17.102Z,97414.81
2022-12-09T00:08:18.957Z,97414.81
2022-12-09T00:09:20.594Z,97414.81
2022-12-09T00:10:22.334Z,97412.53
2022-12-09T00:11:25.292Z,97415.00
2022-12-09T00:12:27.117Z,97416.66
2022-12-09T00:13:29.660Z,97412.53
2022-12-09T00:14:31.323Z,97414.72
2022-12-09T00:15:33.144Z,97415.34
2022-12-09T00:16:35.278Z,97413.63
2022-12-09T00:17:36.891Z,97409.19
2022-12-09T00:18:38.721Z,97409.94
2022-12-09T00:19:40.227Z,97416.38
2022-12-09T00:20:41.726Z,97419.72
2022-12-09T00:21:43.894Z,97414.19
2022-12-09T00:22:45.472Z,97410.41
2022-12-09T00:23:47.862Z,97412.22
2022-12-09T00:24:49.340Z,97411.91
2022-12-09T00:25:51.123Z,97411.47
2022-12-09T00:26:52.583Z,97413.75
2022-12-09T00:27:54.175Z,97414.53
2022-12-09T00:28:56.696Z,97409.19
2022-12-09T00:29:58.176Z,97413.63
2022-12-09T00:31:00.793Z,97406.59
2022-12-09T00:32:03.005Z,97410.69
2022-12-09T00:33:04.768Z,97404.41
2022-12-09T00:34:10.422Z,97409.94
2022-12-09T00:35:11.871Z,97410.69
2022-12-09T00:36:16.180Z,97407.34
2022-12-09T00:37:18.155Z,97413.31
2022-12-09T00:38:19.626Z,97413.50
2022-12-09T00:39:21.055Z,97400.38
2022-12-09T00:40:22.610Z,97407.22
2022-12-09T00:41:25.120Z,97404.31
2022-12-09T00:42:26.933Z,97406.91
2022-12-09T00:43:28.367Z,97397.69
2022-12-09T00:44:29.885Z,97403.22
2022-12-09T00:45:31.310Z,97403.41
2022-12-09T00:46:33.371Z,97400.06
2022-12-09T00:47:35.686Z,97398.66
2022-12-09T00:48:39.826Z,97407.66
2022-12-09T00:49:41.562Z,97399.88
2022-12-09T00:50:44.864Z,97405.06
2022-12-09T00:51:46.992Z,97399.31
2022-12-09T00:52:48.415Z,97402.34
2022-12-09T00:53:55.950Z,97401.59
2022-12-09T00:54:57.879Z,97394.09
2022-12-09T00:55:59.675Z,97398.84
2022-12-09T00:57:01.721Z,97398.41
2022-12-09T00:58:03.523Z,97400.13
2022-12-09T00:59:05.019Z,97397.38
2022-12-09T01:00:07.948Z,97403.09
2022-12-09T01:01:09.888Z,97398.34
2022-12-09T01:02:11.836Z,97406.88
2022-12-09T01:03:18.613Z,97399.09
2022-12-09T01:04:20.388Z,97399.75
2022-12-09T01:05:22.538Z,97396.38
2022-12-09T01:06:26.170Z,97401.13
2022-12-09T01:07:27.653Z,97392.25
2022-12-09T01:08:29.232Z,97398.19
2022-12-09T01:09:33.505Z,97400.50
2022-12-09T01:10:35.313Z,97403.72
2022-12-09T01:11:37.103Z,97409.38
2022-12-09T01:12:39.101Z,97404.94
2022-12-09T01:13:41.342Z,97409.81
2022-12-09T01:14:42.988Z,97406.59
2022-12-09T01:15:45.332Z,97400.31
2022-12-09T01:16:47.557Z,97401.06
2022-12-09T01:17:49.103Z,97402.78
2022-12-09T01:18:52.764Z,97394.41
2022-12-09T01:19:54.271Z,97401.00
2022-12-09T01:20:57.689Z,97399.47
2022-12-09T01:21:59.968Z,97403.47
2022-12-09T01:23:02.185Z,97394.88
2022-12-09T01:24:11.566Z,97407.59
2022-12-09T01:25:13.440Z,97397.19
2022-12-09T01:26:14.951Z,97401.31
2022-12-09T01:27:16.757Z,97394.13
2022-12-09T01:28:18.509Z,97394.88
2022-12-09T01:29:20.133Z,97393.94
2022-12-09T01:30:21.664Z,97393.31
2022-12-09T01:31:25.078Z,97391.81
2022-12-09T01:32:27.116Z,97397.34
2022-12-09T01:33:28.865Z,97394.13
2022-12-09T01:34:30.602Z,97395.69
2022-12-09T01:35:32.183Z,97396.31
2022-12-09T01:36:34.287Z,97397.38
2022-12-09T01:37:37.373Z,97389.59
2022-12-09T01:38:38.955Z,97390.66
2022-12-09T01:39:40.883Z,97394.78
2022-12-09T01:40:47.045Z,97387.00
2022-12-09T01:41:51.990Z,97390.34
2022-12-09T01:42:53.543Z,97386.22
2022-12-09T01:44:16.998Z,97381.31
2022-12-09T01:45:30.403Z,97387.94
2022-12-09T01:46:32.026Z,97385.19
2022-12-09T01:47:34.169Z,97383.53
2022-12-09T01:48:42.547Z,97378.66
2022-12-09T01:49:46.616Z,97379.72
2022-12-09T01:50:57.648Z,97377.91
2022-12-09T01:52:16.561Z,97375.59
2022-12-09T01:53:21.592Z,97367.53
2022-12-09T01:54:23.214Z,97373.78
2022-12-09T01:55:25.358Z,97370.75
2022-12-09T01:56:34.066Z,97364.78
2022-12-09T01:57:36.638Z,97366.16
2022-12-09T01:58:38.572Z,97370.16
2022-12-09T01:59:41.886Z,97367.38
2022-12-09T02:00:45.195Z,97367.06
2022-12-09T02:01:50.886Z,97365.53
2022-12-09T02:02:56.475Z,97367.94
2022-12-09T02:03:59.189Z,97369.78
2022-12-09T02:05:01.730Z,97358.78
2022-12-09T02:06:03.365Z,97364.53
2022-12-09T02:07:11.716Z,97361.94
2022-12-09T02:08:16.282Z,97357.84
2022-12-09T02:09:18.026Z,97358.13
2022-12-09T02:10:20.003Z,97354.63
2022-12-09T02:11:40.092Z,97355.41
2022-12-09T02:12:57.625Z,97348.69
2022-12-09T02:14:14.074Z,97351.94
2022-12-09T02:15:24.324Z,97350.38
2022-12-09T02:16:29.148Z,97345.19
2022-12-09T02:17:51.468Z,97345.31
2022-12-09T02:19:03.811Z,97344.25
2022-12-09T02:20:22.821Z,97339.38
2022-12-09T02:21:37.558Z,97338.94
2022-12-09T02:22:46.033Z,97339.69
2022-12-09T02:24:05.595Z,97331.16
2022-12-09T02:25:21.882Z,97335.69
2022-12-09T02:26:45.279Z,97338.63
2022-12-09T02:28:10.850Z,97333.41
2022-12-09T02:29:21.044Z,97338.94
2022-12-09T02:30:37.720Z,97331.91
2022-12-09T02:31:51.800Z,97340.00
2022-12-09T02:33:32.049Z,97336.81
2022-12-09T02:34:39.734Z,97342.34
2022-12-09T02:36:05.741Z,97347.88
2022-12-09T02:37:23.517Z,97346.31
2022-12-09T02:38:31.746Z,97342.22
2022-12-09T02:39:42.228Z,97339.59
2022-12-09T02:40:50.445Z,97344.38
2022-12-09T02:41:54.203Z,97343.63
2022-12-09T02:42:57.696Z,97338.72
2022-12-09T02:44:09.612Z,97335.81
2022-12-09T02:45:13.505Z,97341.13
2022-12-09T02:46:17.025Z,97338.84
2022-12-09T02:47:24.474Z,97334.41
2022-12-09T02:48:34.015Z,97334.56
2022-12-09T02:49:36.841Z,97333.03
2022-12-09T02:50:42.421Z,97330.88
2022-12-09T02:51:45.207Z,97329.34
2022-12-09T02:52:48.376Z,97327.19
2022-12-09T02:53:55.564Z,97331.34
2022-12-09T02:55:00.461Z,97324.72
2022-12-09T02:56:04.522Z,97325.81
2022-12-09T02:57:18.512Z,97319.84
2022-12-09T02:58:20.070Z,97321.81
2022-12-09T02:59:22.201Z,97320.75
2022-12-09T03:00:23.724Z,97316.00
2022-12-09T03:01:41.387Z,97314.47
2022-12-09T03:02:47.863Z,97316.88
2022-12-09T03:03:51.007Z,97322.50
2022-12-09T03:04:57.429Z,97318.72
2022-12-09T03:06:19.968Z,97310.94
2022-12-09T03:07:55.893Z,97312.31
2022-12-09T03:09:09.612Z,97306.81
2022-12-09T03:10:22.429Z,97309.41
2022-12-09T03:11:26.027Z,97303.75
2022-12-09T03:12:32.076Z,97305.59
2022-12-09T03:13:52.810Z,97306.22
2022-12-09T03:14:55.815Z,97303.38
2022-12-09T03:16:08.252Z,97306.31
2022-12-09T03:17:14.485Z,97305.84
2022-12-09T03:18:19.280Z,97310.28
2022-12-09T03:19:45.894Z,97310.28
2022-12-09T03:20:50.365Z,97303.56
2022-12-09T03:21:55.928Z,97303.09
2022-12-09T03:23:01.425Z,97306.94
2022-12-09T03:24:04.653Z,97306.16
2022-12-09T03:25:12.946Z,97301.91
2022-12-09T03:26:16.319Z,97308.38
2022-12-09T03:27:25.513Z,97303.03
2022-12-09T03:28:40.171Z,97299.56
2022-12-09T03:29:44.538Z,97306.59
2022-12-09T03:30:46.748Z,97304.88
2022-12-09T03:31:50.945Z,97320.44
2022-12-09T03:32:54.774Z,97312.66
2022-12-09T03:34:01.293Z,97316.16
2022-12-09T03:35:10.831Z,97312.31
2022-12-09T03:36:14.858Z,97306.44
2022-12-09T03:37:18.928Z,97306.44
2022-12-09T03:38:23.497Z,97301.41
2022-12-09T03:39:29.199Z,97308.41
2022-12-09T03:40:32.367Z,97309.63
2022-12-09T03:41:34.262Z,97306.53
2022-12-09T03:42:49.310Z,97302.88
2022-12-09T03:43:55.614Z,97299.38
2022-12-09T03:45:01.248Z,97298.31
2022-12-09T03:46:03.443Z,97304.25
2022-12-09T03:47:07.924Z,97292.78
2022-12-09T03:48:10.998Z,97298.31
2022-12-09T03:49:12.974Z,97290.59
2022-12-09T03:50:15.005Z,97293.69
2022-12-09T03:51:26.756Z,97293.50
2022-12-09T03:52:41.511Z,97297.00
2022-12-09T03:53:58.915Z,97291.19
2022-12-09T03:55:08.191Z,97295.31
2022-12-09T03:56:19.706Z,97284.59
2022-12-09T03:57:22.536Z,97285.69
2022-12-09T03:58:25.745Z,97287.53
2022-12-09T03:59:31.317Z,97288.28
2022-12-09T04:00:37.441Z,97287.22
2022-12-09T04:01:41.820Z,97284.59
2022-12-09T04:02:44.573Z,97293.91
2022-12-09T04:03:49.949Z,97296.78
2022-12-09T04:04:51.945Z,97296.16
2022-12-09T04:05:53.856Z,97299.53
2022-12-09T04:06:55.811Z,97296.16
2022-12-09T04:07:57.380Z,97305.66
2022-12-09T04:09:02.328Z,97302.16
2022-12-09T04:10:06.238Z,97303.22
2022-12-09T04:11:08.392Z,97298.81
2022-12-09T04:12:10.073Z,97292.06
2022-12-09T04:13:12.440Z,97290.69
2022-12-09T04:14:16.003Z,97290.56
2022-12-09T04:15:18.185Z,97286.59
2022-12-09T04:16:19.738Z,97280.19
2022-12-09T04:17:21.890Z,97286.44
2022-12-09T04:18:24.172Z,97284.59
2022-12-09T04:19:25.997Z,97279.75
2022-12-09T04:20:28.028Z,97281.25
2022-12-09T04:21:29.569Z,97277.72
2022-12-09T04:22:31.295Z,97286.69
2022-12-09T04:23:35.580Z,97282.72
2022-12-09T04:24:39.346Z,97283.63
2022-12-09T04:25:40.969Z,97275.84
2022-12-09T04:26:42.586Z,97282.88
2022-12-09T04:27:44.312Z,97281.03
2022-12-09T04:28:46.490Z,97281.34
2022-12-09T04:29:48.065Z,97284.38
2022-12-09T04:30:49.781Z,97284.38
2022-12-09T04:31:51.402Z,97289.16
2022-12-09T04:32:52.958Z,97287.31
2022-12-09T04:33:54.475Z,97288.69
2022-12-09T04:34:56.143Z,97282.72
2022-12-09T04:36:07.495Z,97280.13
2022-12-09T04:37:09.296Z,97279.09
2022-12-09T04:38:11.391Z,97277.16
2022-12-09T04:39:12.850Z,97277.59
2022-12-09T04:40:19.636Z,97278.81
2022-12-09T04:41:24.637Z,97278.47
2022-12-09T04:42:28.423Z,97276.31
2022-12-09T04:43:30.893Z,97286.09
2022-12-09T04:44:32.330Z,97283.16
2022-12-09T04:45:34.439Z,97283.16
2022-12-09T04:46:36.158Z,97279.19
2022-12-09T04:47:38.433Z,97279.63
2022-12-09T04:48:40.581Z,97283.78
2022-12-09T04:49:42.105Z,97286.97
2022-12-09T04:50:43.707Z,97273.88
2022-12-09T04:51:45.212Z,97281.22
2022-12-09T04:52:47.108Z,97273.72
2022-12-09T04:53:48.758Z,97274.03
2022-12-09T04:54:51.111Z,97270.84
2022-12-09T04:56:04.243Z,97269.44
2022-12-09T04:57:05.914Z,97272.91
2022-12-09T04:58:07.784Z,97269.38
2022-12-09T04:59:09.435Z,97272.44
2022-12-09T05:00:13.731Z,97283.25
2022-12-09T05:01:21.623Z,97268.75
2022-12-09T05:02:26.789Z,97269.97
2022-12-09T05:03:28.793Z,97268.44
2022-12-09T05:04:30.571Z,97271.38
2022-12-09T05:05:32.252Z,97269.72
2022-12-09T05:06:34.603Z,97267.72
2022-12-09T05:07:36.655Z,97265.00
2022-12-09T05:08:39.253Z,97276.78
2022-12-09T05:09:41.126Z,97269.44
2022-12-09T05:10:48.316Z,97267.47
2022-12-09T05:11:52.431Z,97268.66
2022-12-09T05:12:53.945Z,97265.91
2022-12-09T05:13:56.001Z,97269.72
2022-12-09T05:14:58.966Z,97268.19
2022-12-09T05:16:01.537Z,97267.88
2022-12-09T05:17:04.436Z,97263.63
2022-12-09T05:18:06.175Z,97266.22
2022-12-09T05:19:08.631Z,97269.06
2022-12-09T05:20:11.758Z,97260.66
2022-12-09T05:21:16.587Z,97260.66
2022-12-09T05:22:18.963Z,97255.78
2022-12-09T05:23:21.401Z,97255.78
2022-12-09T05:24:23.064Z,97258.38
2022-12-09T05:25:24.994Z,97260.78
2022-12-09T05:26:26.596Z,97256.50
2022-12-09T05:27:28.278Z,97249.78
2022-12-09T05:28:31.355Z,97242.84
2022-12-09T05:29:33.070Z,97236.00
2022-12-09T05:30:34.761Z,97238.31
2022-12-09T05:31:36.566Z,97236.34
2022-12-09T05:32:38.515Z,97236.81
2022-12-09T05:33:40.619Z,97242.00
2022-12-09T05:34:42.316Z,97235.25
2022-12-09T05:35:52.245Z,97234.50
2022-12-09T05:36:54.231Z,97234.50
2022-12-09T05:37:56.039Z,97235.25
2022-12-09T05:38:58.013Z,97228.56
2022-12-09T05:39:59.896Z,97227.94
2022-12-09T05:41:01.453Z,97234.22
2022-12-09T05:42:03.608Z,97230.19
2022-12-09T05:43:05.123Z,97226.66
2022-12-09T05:44:07.059Z,97228.81
2022-12-09T05:45:09.005Z,97230.97
2022-12-09T05:46:11.568Z,97223.63
2022-12-09T05:47:13.552Z,97224.81
2022-12-09T05:48:15.229Z,97222.09
2022-12-09T05:49:17.706Z,97222.41
2022-12-09T05:50:19.737Z,97223.31
2022-12-09T05:51:24.613Z,97220.56
2022-12-09T05:52:26.250Z,97221.31
2022-12-09T05:53:29.150Z,97222.97
2022-12-09T05:54:30.988Z,97228.50
2022-12-09T05:55:32.609Z,97224.06
2022-12-09T05:56:34.562Z,97226.66
2022-12-09T05:57:36.897Z,97220.38
2022-12-09T05:58:38.757Z,97218.09
2022-12-09T05:59:40.321Z,97218.53
2022-12-09T06:00:41.926Z,97215.50
2022-12-09T06:01:43.479Z,97209.56
2022-12-09T06:02:45.531Z,97205.88
2022-12-09T06:03:48.669Z,97210.31
2022-12-09T06:04:51.155Z,97213.81
2022-12-09T06:05:53.291Z,97210.75
2022-12-09T06:06:55.193Z,97207.25
2022-12-09T06:07:58.244Z,97200.25
2022-12-09T06:09:02.936Z,97205.25
2022-12-09T06:10:05.578Z,97209.78
2022-12-09T06:11:34.120Z,97203.66
2022-12-09T06:12:35.682Z,97200.44
2022-12-09T06:13:37.722Z,97207.47
2022-12-09T06:14:39.399Z,97210.34
2022-12-09T06:15:41.624Z,97207.19
2022-12-09T06:16:43.446Z,97204.78
2022-12-09T06:17:45.537Z,97204.38
2022-12-09T06:18:48.585Z,97203.28
2022-12-09T06:19:50.586Z,97203.72
2022-12-09T06:20:52.379Z,97207.84
2022-12-09T06:21:53.925Z,97203.28
2022-12-09T06:22:55.804Z,97200.56
2022-12-09T06:23:57.977Z,97204.50
2022-12-09T06:24:59.501Z,97212.72
2022-12-09T06:26:00.963Z,97209.16
2022-12-09T06:27:03.367Z,97203.97
2022-12-09T06:28:05.528Z,97199.53
2022-12-09T06:29:07.160Z,97194.00
2022-12-09T06:30:09.430Z,97199.88
2022-12-09T06:31:11.129Z,97196.50
2022-12-09T06:32:13.152Z,97200.28
2022-12-09T06:33:45.109Z,97194.22
2022-12-09T06:34:37.174Z,97196.81
2022-12-09T06:35:38.765Z,97190.56
2022-12-09T06:36:40.497Z,97197.28
2022-12-09T06:37:42.332Z,97192.28
2022-12-09T06:38:44.441Z,97189.97
2022-12-09T06:39:47.244Z,97191.50
2022-12-09T06:40:49.184Z,97187.84
2022-12-09T06:41:50.892Z,97185.22
2022-12-09T06:42:53.108Z,97179.84
2022-12-09T06:43:57.761Z,97175.28
2022-12-09T06:44:59.445Z,97177.44
2022-12-09T06:46:01.320Z,97181.22
2022-12-09T06:47:03.261Z,97180.94
2022-12-09T06:48:05.684Z,97177.03
2022-12-09T06:49:07.269Z,97181.28
2022-12-09T06:50:09.671Z,97181.72
2022-12-09T06:51:11.977Z,97181.63
2022-12-09T06:52:13.611Z,97174.88
2022-12-09T06:53:15.432Z,97178.56
2022-12-09T06:54:17.320Z,97179.66
2022-12-09T06:55:19.202Z,97178.13
2022-12-09T06:56:20.975Z,97175.97
2022-12-09T06:57:22.920Z,97180.84
2022-12-09T06:58:25.059Z,97170.56
2022-12-09T06:59:26.967Z,97174.81
2022-12-09T07:00:29.119Z,97169.28
2022-12-09T07:01:30.833Z,97173.41
2022-12-09T07:02:36.755Z,97173.28
2022-12-09T07:03:42.893Z,97175.13
2022-12-09T07:04:45.162Z,97178.28
2022-12-09T07:05:47.263Z,97177.06
2022-12-09T07:06:49.091Z,97178.81
2022-12-09T07:07:52.457Z,97189.22
2022-12-09T07:08:56.374Z,97185.53
2022-12-09T07:09:58.104Z,97184.31
2022-12-09T07:11:00.364Z,97188.44
2022-12-09T07:12:02.244Z,97184.78
2022-12-09T07:13:04.271Z,97183.88
2022-12-09T07:14:07.435Z,97176.41
2022-12-09T07:15:09.982Z,97182.47
2022-12-09T07:16:11.902Z,97184.00
2022-12-09T07:17:18.570Z,97183.25
2022-12-09T07:18:20.337Z,97182.16
2022-12-09T07:19:23.337Z,97186.63
2022-12-09T07:20:25.395Z,97186.72
2022-12-09T07:21:28.378Z,97196.03
2022-12-09T07:22:30.633Z,97185.66
2022-12-09T07:23:32.481Z,97190.19
2022-12-09T07:24:34.049Z,97193.81
2022-12-09T07:25:35.599Z,97193.47
2022-12-09T07:26:37.667Z,97207.03
2022-12-09T07:27:39.786Z,97199.69
2022-12-09T07:28:42.702Z,97203.03
2022-12-09T07:29:44.535Z,97201.06
2022-12-09T07:30:46.267Z,97195.44
2022-12-09T07:31:48.596Z,97196.94
2022-12-09T07:32:50.847Z,97199.56
2022-12-09T07:33:54.598Z,97195.44
2022-12-09T07:34:56.476Z,97196.19
2022-12-09T07:35:59.423Z,97188.72
2022-12-09T07:37:01.228Z,97192.19
2022-12-09T07:38:03.147Z,97185.19
2022-12-09T07:39:09.085Z,97198.59
2022-12-09T07:40:11.197Z,97190.59
2022-12-09T07:41:18.297Z,97190.25
2022-12-09T07:42:19.899Z,97187.56
2022-12-09T07:43:21.778Z,97192.44
2022-12-09T07:44:24.755Z,97190.16
2022-12-09T07:45:26.310Z,97191.56
2022-12-09T07:46:28.565Z,97194.47
2022-12-09T07:47:30.993Z,97191.22
2022-12-09T07:48:32.860Z,97193.31
2022-12-09T07:49:34.882Z,97197.44
2022-12-09T07:50:37.075Z,97193.75
2022-12-09T07:51:38.931Z,97195.25
2022-12-09T07:52:40.922Z,97193.66
2022-12-09T07:53:43.129Z,97195.25
2022-12-09T07:54:44.984Z,97193.44
2022-12-09T07:55:46.680Z,97188.78
2022-12-09T07:56:48.787Z,97190.41
2022-12-09T07:57:50.432Z,97186.31
2022-12-09T07:58:53.710Z,97185.22
2022-12-09T07:59:56.900Z,97186.75
2022-12-09T08:01:05.657Z,97188.25
2022-12-09T08:02:07.667Z,97183.38
2022-12-09T08:03:11.762Z,97187.16
2022-12-09T08:04:14.367Z,97185.31
2022-12-09T08:05:16.708Z,97183.94
2022-12-09T08:06:22.021Z,97188.78
2022-12-09T08:07:24.028Z,97190.00
2022-12-09T08:08:26.591Z,97190.44
2022-12-09T08:09:28.524Z,97191.19
2022-12-09T08:10:30.664Z,97195.00
2022-12-09T08:11:34.014Z,97189.78
2022-12-09T08:12:36.248Z,97187.19
2022-12-09T08:13:38.466Z,97188.38
2022-12-09T08:14:40.373Z,97191.41
2022-12-09T08:15:42.153Z,97193.28
2022-12-09T08:16:44.702Z,97182.97
2022-12-09T08:17:46.589Z,97189.47
2022-12-09T08:18:49.016Z,97186.25
2022-12-09T08:19:50.915Z,97173.66
2022-12-09T08:20:52.773Z,97184.81
2022-12-09T08:21:54.875Z,97173.31
2022-12-09T08:22:57.434Z,97177.78
2022-12-09T08:24:01.734Z,97176.03
2022-12-09T08:25:04.792Z,97176.03
2022-12-09T08:26:07.558Z,97170.09
2022-12-09T08:27:09.262Z,97171.25
2022-12-09T08:28:11.623Z,97173.88
2022-12-09T08:29:14.378Z,97169.13
2022-12-09T08:30:17.246Z,97169.88
2022-12-09T08:31:21.743Z,97170.63
2022-12-09T08:32:23.505Z,97165.41
2022-12-09T08:33:25.609Z,97166.50
2022-12-09T08:34:27.838Z,97168.78
2022-12-09T08:35:29.964Z,97156.53
2022-12-09T08:36:36.927Z,97163.25
2022-12-09T08:37:38.793Z,97162.19
2022-12-09T08:38:40.707Z,97168.88
2022-12-09T08:39:42.497Z,97161.09
2022-12-09T08:40:44.388Z,97160.75
2022-12-09T08:41:46.135Z,97162.19
2022-12-09T08:42:47.801Z,97158.81
2022-12-09T08:43:49.425Z,97163.34
2022-12-09T08:44:51.826Z,97154.38
2022-12-09T08:46:00.299Z,97155.25
2022-12-09T08:47:02.411Z,97151.22
2022-12-09T08:48:04.635Z,97147.84
2022-12-09T08:49:07.381Z,97150.56
2022-12-09T08:50:09.947Z,97144.28
2022-12-09T08:51:12.341Z,97149.47
2022-12-09T08:52:14.266Z,97149.91
2022-12-09T08:53:16.043Z,97142.75
2022-12-09T08:54:18.261Z,97145.03
2022-12-09T08:55:20.307Z,97142.09
2022-12-09T08:56:21.893Z,97134.72
2022-12-09T08:57:24.285Z,97141.56
2022-12-09T08:58:25.901Z,97136.00
2022-12-09T08:59:27.705Z,97139.06
2022-12-09T09:00:29.734Z,97139.47
2022-12-09T09:01:32.651Z,97135.38
2022-12-09T09:02:35.319Z,97133.84
2022-12-09T09:03:37.402Z,97141.31
2022-12-09T09:04:39.254Z,97133.94
2022-12-09T09:05:41.637Z,97144.47
2022-12-09T09:06:46.804Z,97138.59
2022-12-09T09:07:48.620Z,97140.13
2022-12-09T09:08:50.360Z,97131.22
2022-12-09T09:09:52.308Z,97135.00
2022-12-09T09:10:55.099Z,97138.38
2022-12-09T09:11:57.254Z,97138.78
2022-12-09T09:12:58.947Z,97140.63
2022-12-09T09:14:06.821Z,97134.78
2022-12-09T09:15:09.337Z,97142.91
2022-12-09T09:16:13.457Z,97136.19
2022-12-09T09:17:16.003Z,97142.06
2022-12-09T09:18:17.703Z,97141.28
2022-12-09T09:19:22.829Z,97138.38
2022-12-09T09:20:24.794Z,97137.63
2022-12-09T09:21:26.999Z,97136.88
2022-12-09T09:22:29.842Z,97144.00
2022-12-09T09:23:31.535Z,97139.25
2022-12-09T09:24:33.254Z,97130.34
2022-12-09T09:25:37.019Z,97127.38
2022-12-09T09:26:42.845Z,97130.34
2022-12-09T09:27:44.755Z,97127.38
2022-12-09T09:28:47.328Z,97124.13
2022-12-09T09:29:48.938Z,97126.41
2022-12-09T09:30:50.611Z,97124.25
2022-12-09T09:31:56.470Z,97135.19
2022-12-09T09:32:58.429Z,97124.75
2022-12-09T09:34:01.014Z,97125.84
2022-12-09T09:35:03.308Z,97124.00
2022-12-09T09:36:10.477Z,97126.63
2022-12-09T09:37:12.830Z,97125.53
2022-12-09T09:38:14.617Z,97130.06
2022-12-09T09:39:16.216Z,97119.66
2022-12-09T09:40:18.565Z,97123.03
2022-12-09T09:41:42.935Z,97122.25
2022-12-09T09:42:49.190Z,97111.50
2022-12-09T09:43:51.823Z,97110.41
2022-12-09T09:44:54.908Z,97110.06
2022-12-09T09:45:58.652Z,97107.47
2022-12-09T09:47:03.772Z,97120.19
2022-12-09T09:48:06.439Z,97106.81
2022-12-09T09:49:18.882Z,97112.13
2022-12-09T09:50:37.768Z,97104.72
2022-12-09T09:51:40.052Z,97110.38
2022-12-09T09:52:42.687Z,97104.16
2022-12-09T09:53:49.861Z,97105.56
2022-12-09T09:54:52.685Z,97110.03
2022-12-09T09:56:24.754Z,97106.34
2022-12-09T09:57:36.645Z,97100.78
2022-12-09T09:58:45.998Z,97106.78
2022-12-09T10:00:08.434Z,97105.78
2022-12-09T10:01:14.656Z,97099.47
2022-12-09T10:02:23.284Z,97099.78
2022-12-09T10:03:53.937Z,97102.06
2022-12-09T10:05:13.295Z,97103.59
2022-12-09T10:06:30.213Z,97104.78
2022-12-09T10:07:43.653Z,97101.84
2022-12-09T10:08:48.737Z,97103.34
2022-12-09T10:10:17.539Z,97101.94
2022-12-09T10:11:26.948Z,97093.44
2022-12-09T10:12:37.228Z,97097.22
2022-12-09T10:13:57.361Z,97096.22
2022-12-09T10:15:12.378Z,97092.94
2022-12-09T10:16:21.952Z,97096.38
2022-12-09T10:17:33.131Z,97091.19
2022-12-09T10:19:06.003Z,97088.25
2022-12-09T10:20:21.408Z,97089.00
2022-12-09T10:21:23.831Z,97086.56
2022-12-09T10:22:29.810Z,97088.91
2022-12-09T10:23:33.038Z,97082.94
2022-12-09T10:24:39.922Z,97083.38
2022-12-09T10:25:49.138Z,97093.13
2022-12-09T10:27:04.902Z,97087.25
2022-12-09T10:28:23.895Z,97089.09
2022-12-09T10:29:44.020Z,97088.50
2022-12-09T10:30:46.058Z,97085.22
2022-12-09T10:31:47.695Z,97084.53
2022-12-09T10:32:50.201Z,97081.34
2022-12-09T10:33:52.358Z,97081.75
2022-12-09T10:34:54.210Z,97084.06
2022-12-09T10:35:56.936Z,97079.25
2022-12-09T10:36:58.556Z,97077.81
2022-12-09T10:38:11.854Z,97079.00
2022-12-09T10:39:21.936Z,97086.38
2022-12-09T10:40:47.168Z,97083.13
2022-12-09T10:42:11.312Z,97083.13
2022-12-09T10:43:35.688Z,97080.91
2022-12-09T10:44:38.201Z,97081.69
2022-12-09T10:47:39.485Z,97071.69
2022-12-09T10:48:49.425Z,97072.09
2022-12-09T10:49:54.415Z,97070.31
2022-12-09T10:50:58.510Z,97066.13
2022-12-09T10:52:01.558Z,97065.47
2022-12-09T10:53:07.825Z,97060.25
2022-12-09T10:54:09.729Z,97068.88
2022-12-09T10:55:31.439Z,97067.22
2022-12-09T10:56:35.854Z,97069.91
2022-12-09T10:57:37.544Z,97070.16
2022-12-09T10:58:39.308Z,97066.13
2022-12-09T10:59:55.403Z,97066.59
2022-12-09T11:01:05.213Z,97058.38
2022-12-09T11:02:09.912Z,97069.72
2022-12-09T11:03:30.719Z,97057.78
2022-12-09T11:04:33.923Z,97061.25
2022-12-09T11:05:36.092Z,97055.75
2022-12-09T11:06:41.654Z,97054.09
2022-12-09T11:07:48.671Z,97054.19
2022-12-09T11:09:03.072Z,97049.22
2022-12-09T11:10:16.820Z,97042.31
2022-12-09T11:11:19.794Z,97049.19
2022-12-09T11:12:29.959Z,97048.88
2022-12-09T11:13:41.218Z,97047.06
2022-12-09T11:14:54.893Z,97049.44
2022-12-09T11:16:01.282Z,97045.28
2022-12-09T11:17:16.784Z,97043.13
2022-12-09T11:18:27.421Z,97040.59
2022-12-09T11:19:35.166Z,97037.72
2022-12-09T11:20:37.012Z,97045.19
2022-12-09T11:21:39.514Z,97035.09
2022-12-09T11:22:44.178Z,97035.16
2022-12-09T11:24:00.726Z,97038.94
2022-12-09T11:25:31.095Z,97035.25
2022-12-09T11:26:38.506Z,97029.34
2022-12-09T11:27:51.647Z,97033.88
2022-12-09T11:29:17.841Z,97033.53
2022-12-09T11:30:27.122Z,97029.06
2022-12-09T11:31:33.639Z,97026.13
2022-12-09T11:32:52.886Z,97026.94
2022-12-09T11:33:59.214Z,97022.91
2022-12-09T11:35:01.248Z,97019.59
2022-12-09T11:36:17.952Z,97022.56
2022-12-09T11:37:19.442Z,97017.72
2022-12-09T11:38:30.565Z,97022.91
2022-12-09T11:39:36.492Z,97015.47
2022-12-09T11:40:37.983Z,97018.84
2022-12-09T11:42:06.225Z,97018.84
2022-12-09T11:43:10.227Z,97016.66
2022-12-09T11:44:26.208Z,97011.44
2022-12-09T11:45:34.807Z,97016.91
2022-12-09T11:46:36.996Z,97010.25
2022-12-09T11:49:17.525Z,97010.88
2022-12-09T11:50:24.195Z,97015.75
2022-12-09T11:51:35.811Z,97013.03
2022-12-09T11:52:37.274Z,97014.25
2022-12-09T11:53:41.582Z,97013.09
2022-12-09T11:55:15.285Z,97017.50
2022-12-09T11:56:22.832Z,97007.63
2022-12-09T11:57:35.208Z,97006.44
2022-12-09T11:58:53.627Z,97006.41
2022-12-09T12:00:00.943Z,97015.16
2022-12-09T12:01:34.868Z,97014.72
2022-12-09T12:02:58.068Z,97008.66
2022-12-09T12:04:05.401Z,97010.81
2022-12-09T12:05:09.579Z,97009.84
2022-12-09T12:06:23.610Z,97004.75
2022-12-09T12:07:38.694Z,96995.88
2022-12-09T12:08:48.071Z,97000.75
2022-12-09T12:09:55.588Z,97000.81
2022-12-09T12:11:02.845Z,96995.28
2022-12-09T12:12:46.583Z,96987.22
2022-12-09T12:13:51.346Z,96993.47
2022-12-09T12:14:56.472Z,96992.88
2022-12-09T12:16:12.679Z,96984.50
2022-12-09T12:17:22.304Z,96991.78
2022-12-09T12:18:26.115Z,96987.31
2022-12-09T12:19:33.431Z,96982.81
2022-12-09T12:21:10.164Z,96977.16
2022-12-09T12:22:32.764Z,96970.25
2022-12-09T12:24:09.836Z,96965.44
2022-12-09T12:25:43.514Z,96966.88
2022-12-09T12:27:22.229Z,96973.16
2022-12-09T12:28:59.004Z,96971.53
2022-12-09T12:30:09.399Z,96973.84
2022-12-09T12:32:08.576Z,96983.84
2022-12-09T12:35:02.858Z,96976.66
2022-12-09T12:36:27.909Z,96976.47
2022-12-09T12:38:06.978Z,96980.25
2022-12-09T12:39:14.426Z,96974.25
2022-12-09T12:40:50.246Z,96969.78
2022-12-09T12:42:19.906Z,96965.69
2022-12-09T12:43:48.869Z,96970.03
2022-12-09T12:45:20.414Z,96960.38
2022-12-09T12:46:30.823Z,96957.91
2022-12-09T12:47:57.663Z,96958.38
2022-12-09T12:49:42.387Z,96951.94
2022-12-09T12:51:11.235Z,96947.41
2022-12-09T12:52:56.346Z,96950.47
2022-12-09T12:54:28.515Z,96949.03
2022-12-09T12:56:07.455Z,96951.00
2022-12-09T12:57:32.599Z,96946.94
2022-12-09T12:58:54.782Z,96945.69
2022-12-09T13:00:14.534Z,96949.78
2022-12-09T13:01:35.927Z,96948.28
2022-12-09T13:02:44.547Z,96941.25
2022-12-09T13:04:18.763Z,96947.47